createdAt,value
2023-12-14T00:01:37.916Z,10.77
2023-12-14T00:06:52.809Z,9.93
2023-12-14T00:12:07.870Z,12.47
2023-12-14T00:17:15.838Z,11.93
2023-12-14T00:22:23.826Z,13.60
2023-12-14T00:27:31.841Z,11.83
2023-12-14T00:32:39.975Z,14.97
2023-12-14T00:37:47.886Z,12.57
2023-12-14T00:42:55.888Z,13.57
2023-12-14T00:48:03.937Z,12.97
2023-12-14T00:53:25.880Z,11.80
2023-12-14T00:58:34.028Z,12.13
2023-12-14T01:03:41.898Z,11.37
2023-12-14T01:08:58.197Z,13.27
2023-12-14T01:14:05.926Z,11.67
2023-12-14T01:19:16.935Z,12.63
2023-12-14T01:24:24.927Z,13.57
2023-12-14T01:29:32.903Z,11.80
2023-12-14T01:34:41.012Z,13.23
2023-12-14T01:39:48.935Z,11.27
2023-12-14T01:44:56.918Z,12.73
2023-12-14T01:50:05.026Z,12.70
2023-12-14T01:55:14.074Z,14.47
2023-12-14T02:00:35.983Z,12.23
2023-12-14T02:05:51.047Z,12.90
2023-12-14T02:11:06.065Z,11.93
2023-12-14T02:16:14.960Z,14.30
2023-12-14T02:21:23.034Z,11.13
2023-12-14T02:26:30.997Z,13.10
2023-12-14T02:31:39.069Z,14.07
2023-12-14T02:36:47.000Z,14.80
2023-12-14T02:41:55.015Z,12.97
2023-12-14T02:47:03.081Z,12.43
2023-12-14T02:52:12.040Z,14.30
2023-12-14T02:57:27.028Z,12.67
2023-12-14T03:02:35.209Z,13.47
2023-12-14T03:07:51.041Z,13.10
2023-12-14T03:13:00.059Z,13.37
2023-12-14T03:18:08.165Z,13.70
2023-12-14T03:23:16.137Z,14.00
2023-12-14T03:28:25.082Z,12.00
2023-12-14T03:33:33.251Z,14.20
2023-12-14T03:38:41.054Z,14.63
2023-12-14T03:43:49.128Z,15.57
2023-12-14T03:48:57.067Z,12.70
2023-12-14T03:54:05.104Z,11.63
2023-12-14T03:59:20.113Z,11.57
2023-12-14T04:04:35.136Z,11.97
2023-12-14T04:09:52.174Z,12.83
2023-12-14T04:15:00.069Z,10.80
2023-12-14T04:20:10.147Z,13.77
2023-12-14T04:25:25.182Z,11.67
2023-12-14T04:30:33.165Z,16.13
2023-12-14T04:35:44.162Z,14.10
2023-12-14T04:40:52.149Z,13.23
2023-12-14T04:46:00.173Z,12.57
2023-12-14T04:51:08.196Z,15.47
2023-12-14T04:56:20.303Z,13.03
2023-12-14T05:05:31.896Z,11.10
2023-12-14T05:10:46.872Z,11.57
2023-12-14T05:15:54.881Z,13.90
2023-12-14T05:21:02.808Z,14.27
2023-12-14T05:26:11.926Z,16.87
2023-12-14T05:31:19.882Z,11.67
2023-12-14T05:36:28.847Z,12.90
2023-12-14T05:41:37.920Z,10.40
2023-12-14T05:46:45.927Z,11.93
2023-12-14T05:51:55.121Z,9.97
2023-12-14T05:57:02.991Z,10.43
2023-12-14T06:02:18.087Z,10.67
2023-12-14T06:07:32.957Z,14.57
2023-12-14T06:12:40.891Z,11.97
2023-12-14T06:17:49.981Z,9.80
2023-12-14T06:23:00.814Z,9.40
2023-12-14T06:28:08.940Z,9.53
2023-12-14T06:33:17.032Z,10.33
2023-12-14T06:38:24.917Z,11.77
2023-12-14T06:43:32.971Z,14.20
2023-12-14T06:48:41.059Z,9.07
2023-12-14T06:53:51.006Z,10.63
2023-12-14T06:58:59.043Z,10.87
2023-12-14T07:04:06.989Z,9.57
2023-12-14T07:09:15.049Z,8.93
2023-12-14T07:14:26.020Z,11.37
2023-12-14T07:19:34.072Z,10.27
2023-12-14T07:24:49.224Z,8.73
2023-12-14T07:30:01.035Z,10.77
2023-12-14T07:35:09.105Z,11.87
2023-12-14T07:40:18.085Z,9.37
2023-12-14T07:45:26.086Z,10.20
2023-12-14T07:50:35.058Z,13.30
2023-12-14T07:55:43.117Z,12.87
2023-12-14T08:00:58.128Z,11.40
2023-12-14T08:06:16.681Z,10.63
2023-12-14T08:11:25.089Z,9.53
2023-12-14T08:16:33.078Z,10.27
2023-12-14T08:21:51.130Z,9.97
2023-12-14T08:26:59.127Z,10.27
2023-12-14T08:32:07.140Z,11.37
2023-12-14T08:37:15.166Z,10.27
2023-12-14T08:42:23.129Z,10.50
2023-12-14T08:47:31.137Z,10.10
2023-12-14T08:52:39.411Z,12.30
2023-12-14T08:57:48.150Z,10.00
2023-12-14T09:03:03.329Z,12.93
2023-12-14T09:08:12.175Z,10.20
2023-12-14T09:13:20.300Z,12.27
2023-12-14T09:18:30.271Z,10.87
2023-12-14T09:23:38.220Z,9.67
2023-12-14T09:28:47.251Z,13.73
2023-12-14T09:33:55.223Z,12.27
2023-12-14T09:39:03.155Z,10.13
2023-12-14T09:44:14.223Z,10.93
2023-12-14T09:49:24.203Z,11.30
2023-12-14T09:54:36.290Z,12.03
2023-12-14T09:59:45.159Z,10.87
2023-12-14T10:05:00.287Z,12.57
2023-12-14T10:10:27.238Z,12.53
2023-12-14T10:15:35.205Z,10.00
2023-12-14T10:20:45.236Z,10.33
2023-12-14T10:25:54.288Z,11.53
2023-12-14T10:31:04.291Z,9.87
2023-12-14T10:36:13.255Z,9.80
2023-12-14T10:41:21.370Z,12.57
2023-12-14T10:46:33.264Z,11.30
2023-12-14T10:51:47.164Z,10.77
2023-12-14T10:56:56.249Z,9.50
2023-12-14T11:06:54.890Z,11.18
2023-12-14T11:12:05.860Z,11.70
2023-12-14T11:17:14.934Z,10.50
2023-12-14T11:22:31.831Z,10.73
2023-12-14T11:27:40.864Z,10.87
2023-12-14T11:32:56.882Z,10.93
2023-12-14T11:38:06.918Z,11.50
2023-12-14T11:43:15.897Z,13.67
2023-12-14T11:48:24.032Z,9.30
2023-12-14T11:53:31.909Z,12.03
2023-12-14T11:58:42.916Z,9.27
2023-12-14T12:03:58.930Z,8.50
2023-12-14T12:09:06.872Z,7.70
2023-12-14T12:14:15.067Z,9.20
2023-12-14T12:19:23.015Z,9.23
2023-12-14T12:24:32.429Z,9.13
2023-12-14T12:29:42.944Z,8.53
2023-12-14T12:34:51.041Z,8.23
2023-12-14T12:39:58.906Z,9.10
2023-12-14T12:45:07.081Z,9.63
2023-12-14T12:50:16.025Z,8.03
2023-12-14T12:55:30.965Z,8.73
2023-12-14T13:00:38.961Z,7.37
2023-12-14T13:05:54.018Z,8.27
2023-12-14T13:11:02.028Z,9.40
2023-12-14T13:16:10.025Z,8.57
2023-12-14T13:21:20.980Z,8.20
2023-12-14T13:26:29.023Z,7.27
2023-12-14T13:31:38.163Z,8.43
2023-12-14T13:36:46.060Z,8.03
2023-12-14T13:41:57.041Z,6.70
2023-12-14T13:47:05.045Z,10.27
2023-12-14T13:52:13.146Z,8.03
2023-12-14T13:57:20.990Z,7.30
2023-12-14T14:02:31.075Z,7.03
2023-12-14T14:07:46.363Z,5.50
2023-12-14T14:12:55.153Z,6.23
2023-12-14T14:18:03.393Z,5.13
2023-12-14T14:23:12.087Z,5.67
2023-12-14T14:28:27.030Z,6.23
2023-12-14T14:33:35.146Z,6.93
2023-12-14T14:38:44.123Z,9.80
2023-12-14T14:43:52.173Z,9.77
2023-12-14T14:49:00.133Z,8.23
2023-12-14T14:54:08.075Z,7.83
2023-12-14T14:59:17.141Z,7.10
2023-12-14T15:04:32.111Z,7.57
2023-12-14T15:09:40.081Z,10.90
2023-12-14T15:14:48.149Z,9.23
2023-12-14T15:19:57.229Z,8.73
2023-12-14T15:25:12.124Z,7.87
2023-12-14T15:30:20.186Z,7.60
2023-12-14T15:35:36.184Z,6.63
2023-12-14T15:40:46.176Z,5.80
2023-12-14T15:45:54.196Z,7.83
2023-12-14T15:51:02.149Z,8.17
2023-12-14T15:56:11.267Z,8.47
2023-12-14T16:01:20.215Z,7.33
2023-12-14T16:06:35.174Z,8.77
2023-12-14T16:11:50.169Z,10.27
2023-12-14T16:16:58.232Z,10.53
2023-12-14T16:22:06.229Z,6.97
2023-12-14T16:27:14.239Z,7.60
2023-12-14T16:32:23.331Z,6.47
2023-12-14T16:37:34.183Z,6.70
2023-12-14T16:42:42.250Z,10.13
2023-12-14T16:47:50.228Z,6.60
2023-12-14T16:52:58.296Z,5.57
2023-12-14T16:58:13.238Z,5.83
2023-12-14T17:03:28.333Z,5.67
2023-12-14T17:08:43.305Z,4.60
2023-12-14T17:13:51.343Z,4.80
2023-12-14T17:18:59.334Z,5.23
2023-12-14T17:24:09.365Z,4.30
2023-12-14T17:29:18.401Z,4.90
2023-12-14T17:34:28.346Z,4.23
2023-12-14T17:39:36.302Z,4.30
2023-12-14T17:44:44.319Z,4.87
2023-12-14T17:49:52.336Z,5.90
2023-12-14T17:55:03.302Z,6.07
2023-12-14T18:00:15.342Z,4.23
2023-12-14T18:05:37.393Z,5.00
2023-12-14T18:10:49.303Z,4.73
2023-12-14T18:15:58.513Z,4.47
2023-12-14T18:21:07.907Z,5.60
2023-12-14T18:26:18.385Z,5.33
2023-12-14T18:31:27.360Z,6.50
2023-12-14T18:36:35.368Z,6.17
2023-12-14T18:41:43.387Z,8.60
2023-12-14T18:46:51.396Z,5.93
2023-12-14T18:51:59.373Z,5.43
2023-12-14T18:57:07.344Z,5.53
2023-12-14T19:02:15.430Z,4.93
2023-12-14T19:07:30.445Z,5.20
2023-12-14T19:12:38.464Z,5.60
2023-12-14T19:17:47.549Z,4.77
2023-12-14T19:22:55.528Z,5.53
2023-12-14T19:28:03.394Z,3.60
2023-12-14T19:33:11.535Z,4.17
2023-12-14T19:38:29.540Z,4.83
2023-12-14T19:43:37.532Z,3.57
2023-12-14T19:48:52.564Z,3.97
2023-12-14T19:54:00.515Z,5.00
2023-12-14T19:59:08.523Z,3.90
2023-12-14T20:04:23.483Z,4.30
2023-12-14T20:09:46.737Z,4.67
2023-12-14T20:15:03.494Z,4.07
2023-12-14T20:20:16.548Z,4.67
2023-12-14T20:25:24.508Z,3.70
2023-12-14T20:30:32.497Z,5.90
2023-12-14T20:35:40.523Z,4.60
2023-12-14T20:40:55.601Z,4.87
2023-12-14T20:46:05.590Z,4.67
2023-12-14T20:51:13.565Z,5.23
2023-12-14T20:56:25.709Z,6.17
2023-12-14T21:01:37.512Z,4.83
2023-12-14T21:06:45.568Z,5.03
2023-12-14T21:11:53.528Z,4.37
2023-12-14T21:17:01.674Z,4.80
2023-12-14T21:22:16.665Z,5.53
2023-12-14T21:27:43.689Z,4.53
2023-12-14T21:32:53.765Z,4.60
2023-12-14T21:38:10.204Z,6.20
2023-12-14T21:43:24.598Z,4.90
2023-12-14T21:48:32.759Z,5.17
2023-12-14T21:53:40.640Z,6.00
2023-12-14T21:58:48.628Z,5.60
2023-12-14T22:04:10.587Z,4.73
2023-12-14T22:09:25.598Z,6.10
2023-12-14T22:14:33.739Z,5.43
2023-12-14T22:19:44.712Z,4.60
2023-12-14T22:24:52.604Z,6.53
2023-12-14T22:30:00.654Z,7.30
2023-12-14T22:35:08.723Z,5.50
2023-12-14T22:40:17.650Z,5.90
2023-12-14T22:45:25.650Z,5.47
2023-12-14T22:50:33.681Z,5.53
2023-12-14T22:55:41.721Z,5.63
2023-12-14T23:00:49.700Z,8.03
2023-12-14T23:06:04.734Z,7.40
2023-12-14T23:11:15.947Z,7.53
2023-12-14T23:16:23.735Z,5.70
2023-12-14T23:21:31.753Z,6.30
2023-12-14T23:26:39.711Z,6.00
2023-12-14T23:31:47.741Z,8.03
2023-12-14T23:36:55.710Z,7.73
2023-12-14T23:42:06.769Z,6.97
2023-12-14T23:47:16.784Z,7.90
2023-12-14T23:52:24.753Z,6.97
2023-12-14T23:57:32.728Z,7.27
